sensor_id;sensor_type;location;lat;lon;timestamp;pressure;altitude;pressure_sealevel;temperature;humidity
74659;BME280;63186;51.204;6.536;2023-06-10T00:01:38;100937.25;;;16.77;77.31
74659;BME280;63186;51.204;6.536;2023-06-10T00:04:04;100931.78;;;16.57;78.21
74659;BME280;63186;51.204;6.536;2023-06-10T00:06:30;100923.66;;;16.39;78.78
74659;BME280;63186;51.204;6.536;2023-06-10T00:09:05;100935.34;;;16.45;79.39
74659;BME280;63186;51.204;6.536;2023-06-10T00:11:33;100925.28;;;16.52;78.82
74659;BME280;63186;51.204;6.536;2023-06-10T00:13:59;100935.00;;;16.59;78.48
74659;BME280;63186;51.204;6.536;2023-06-10T00:16:25;100930.72;;;16.61;78.13
74659;BME280;63186;51.204;6.536;2023-06-10T00:18:50;100939.06;;;16.61;78.08
74659;BME280;63186;51.204;6.536;2023-06-10T00:21:16;100924.81;;;16.50;78.37
74659;BME280;63186;51.204;6.536;2023-06-10T00:23:42;100931.06;;;16.47;78.93
74659;BME280;63186;51.204;6.536;2023-06-10T00:26:07;100928.41;;;16.39;79.20
74659;BME280;63186;51.204;6.536;2023-06-10T00:28:33;100934.97;;;16.22;79.75
74659;BME280;63186;51.204;6.536;2023-06-10T00:30:58;100932.09;;;16.18;80.41
74659;BME280;63186;51.204;6.536;2023-06-10T00:33:24;100931.97;;;16.27;80.20
74659;BME280;63186;51.204;6.536;2023-06-10T00:35:49;100934.19;;;16.34;79.76
74659;BME280;63186;51.204;6.536;2023-06-10T00:38:14;100930.00;;;16.27;80.23
74659;BME280;63186;51.204;6.536;2023-06-10T00:40:40;100935.44;;;16.24;80.07
74659;BME280;63186;51.204;6.536;2023-06-10T00:43:06;100935.78;;;16.22;80.48
74659;BME280;63186;51.204;6.536;2023-06-10T00:45:31;100934.06;;;16.30;80.26
74659;BME280;63186;51.204;6.536;2023-06-10T00:47:58;100934.63;;;16.36;79.97
74659;BME280;63186;51.204;6.536;2023-06-10T00:50:23;100932.34;;;16.38;79.70
74659;BME280;63186;51.204;6.536;2023-06-10T00:52:48;100935.56;;;16.40;79.72
74659;BME280;63186;51.204;6.536;2023-06-10T00:55:16;100939.94;;;16.28;80.29
74659;BME280;63186;51.204;6.536;2023-06-10T00:57:42;100942.38;;;16.18;81.16
74659;BME280;63186;51.204;6.536;2023-06-10T01:00:10;100940.84;;;16.08;81.62
74659;BME280;63186;51.204;6.536;2023-06-10T01:02:35;100947.69;;;16.11;81.97
74659;BME280;63186;51.204;6.536;2023-06-10T01:05:01;100944.09;;;16.10;82.38
74659;BME280;63186;51.204;6.536;2023-06-10T01:10:20;100945.38;;;16.13;83.22
74659;BME280;63186;51.204;6.536;2023-06-10T01:15:19;100936.97;;;15.88;82.19
74659;BME280;63186;51.204;6.536;2023-06-10T01:20:19;100937.38;;;15.66;83.10
74659;BME280;63186;51.204;6.536;2023-06-10T01:22:44;100944.53;;;15.67;83.15
74659;BME280;63186;51.204;6.536;2023-06-10T01:25:10;100944.09;;;15.65;83.01
74659;BME280;63186;51.204;6.536;2023-06-10T01:27:38;100946.22;;;15.59;82.92
74659;BME280;63186;51.204;6.536;2023-06-10T01:30:10;100947.84;;;15.39;83.42
74659;BME280;63186;51.204;6.536;2023-06-10T01:32:41;100939.78;;;15.26;83.99
74659;BME280;63186;51.204;6.536;2023-06-10T01:35:08;100946.09;;;15.14;83.92
74659;BME280;63186;51.204;6.536;2023-06-10T01:37:34;100942.69;;;15.08;84.45
74659;BME280;63186;51.204;6.536;2023-06-10T01:40:01;100945.59;;;15.12;84.59
74659;BME280;63186;51.204;6.536;2023-06-10T01:42:31;100937.28;;;15.12;84.39
74659;BME280;63186;51.204;6.536;2023-06-10T01:44:57;100947.91;;;15.10;84.81
74659;BME280;63186;51.204;6.536;2023-06-10T01:47:23;100944.84;;;15.03;84.71
74659;BME280;63186;51.204;6.536;2023-06-10T01:49:48;100941.88;;;15.08;85.01
74659;BME280;63186;51.204;6.536;2023-06-10T01:52:13;100948.38;;;15.12;85.01
74659;BME280;63186;51.204;6.536;2023-06-10T01:54:39;100941.88;;;15.08;84.83
74659;BME280;63186;51.204;6.536;2023-06-10T01:57:04;100943.03;;;15.07;85.29
74659;BME280;63186;51.204;6.536;2023-06-10T01:59:31;100947.72;;;15.15;84.88
74659;BME280;63186;51.204;6.536;2023-06-10T02:01:56;100947.03;;;15.18;84.52
74659;BME280;63186;51.204;6.536;2023-06-10T02:04:21;100945.56;;;15.20;84.82
74659;BME280;63186;51.204;6.536;2023-06-10T02:06:47;100947.16;;;15.22;84.56
74659;BME280;63186;51.204;6.536;2023-06-10T02:09:13;100952.72;;;15.22;84.90
74659;BME280;63186;51.204;6.536;2023-06-10T02:11:38;100950.06;;;15.25;85.06
74659;BME280;63186;51.204;6.536;2023-06-10T02:14:04;100959.19;;;15.26;84.88
74659;BME280;63186;51.204;6.536;2023-06-10T02:16:29;100952.72;;;15.22;85.14
74659;BME280;63186;51.204;6.536;2023-06-10T02:18:55;100954.81;;;15.25;85.43
74659;BME280;63186;51.204;6.536;2023-06-10T02:21:21;100949.25;;;15.25;85.20
74659;BME280;63186;51.204;6.536;2023-06-10T02:23:46;100960.84;;;15.27;84.62
74659;BME280;63186;51.204;6.536;2023-06-10T02:26:12;100962.66;;;15.23;84.91
74659;BME280;63186;51.204;6.536;2023-06-10T02:28:37;100969.00;;;15.23;84.90
74659;BME280;63186;51.204;6.536;2023-06-10T02:31:02;100966.59;;;15.22;85.03
74659;BME280;63186;51.204;6.536;2023-06-10T02:33:28;100960.84;;;15.27;84.96
74659;BME280;63186;51.204;6.536;2023-06-10T02:35:53;100972.25;;;15.25;84.38
74659;BME280;63186;51.204;6.536;2023-06-10T02:38:18;100968.41;;;15.17;84.40
74659;BME280;63186;51.204;6.536;2023-06-10T02:40:43;100958.56;;;14.99;84.57
74659;BME280;63186;51.204;6.536;2023-06-10T02:43:09;100970.81;;;14.98;85.00
74659;BME280;63186;51.204;6.536;2023-06-10T02:45:34;100962.63;;;15.02;84.96
74659;BME280;63186;51.204;6.536;2023-06-10T02:47:59;100969.97;;;15.06;84.69
74659;BME280;63186;51.204;6.536;2023-06-10T02:50:25;100963.25;;;15.07;84.79
74659;BME280;63186;51.204;6.536;2023-06-10T02:52:50;100966.16;;;15.11;84.77
74659;BME280;63186;51.204;6.536;2023-06-10T02:55:15;100968.75;;;15.16;84.44
74659;BME280;63186;51.204;6.536;2023-06-10T02:57:40;100970.25;;;15.13;84.32
74659;BME280;63186;51.204;6.536;2023-06-10T03:00:06;100967.19;;;15.06;84.57
74659;BME280;63186;51.204;6.536;2023-06-10T03:02:37;100966.88;;;14.99;85.44
74659;BME280;63186;51.204;6.536;2023-06-10T03:05:04;100966.13;;;14.90;85.66
74659;BME280;63186;51.204;6.536;2023-06-10T03:07:30;100974.16;;;14.83;86.46
74659;BME280;63186;51.204;6.536;2023-06-10T03:09:56;100959.75;;;14.60;86.88
74659;BME280;63186;51.204;6.536;2023-06-10T03:12:21;100965.00;;;14.61;87.48
74659;BME280;63186;51.204;6.536;2023-06-10T03:14:46;100962.22;;;14.61;87.62
74659;BME280;63186;51.204;6.536;2023-06-10T03:17:12;100963.97;;;14.66;87.39
74659;BME280;63186;51.204;6.536;2023-06-10T03:19:37;100969.16;;;14.76;87.03
74659;BME280;63186;51.204;6.536;2023-06-10T03:22:09;100964.69;;;14.84;86.79
74659;BME280;63186;51.204;6.536;2023-06-10T03:24:35;100970.88;;;14.89;86.04
74659;BME280;63186;51.204;6.536;2023-06-10T03:27:01;100973.28;;;14.91;85.68
74659;BME280;63186;51.204;6.536;2023-06-10T03:29:27;100972.81;;;14.89;85.55
74659;BME280;63186;51.204;6.536;2023-06-10T03:31:52;100972.81;;;14.89;86.15
74659;BME280;63186;51.204;6.536;2023-06-10T03:34:17;100964.69;;;14.84;85.94
74659;BME280;63186;51.204;6.536;2023-06-10T03:36:42;100976.47;;;14.81;86.02
74659;BME280;63186;51.204;6.536;2023-06-10T03:39:08;100983.47;;;14.78;86.13
74659;BME280;63186;51.204;6.536;2023-06-10T03:41:34;100979.06;;;14.77;86.37
74659;BME280;63186;51.204;6.536;2023-06-10T03:44:00;100981.72;;;14.74;86.27
74659;BME280;63186;51.204;6.536;2023-06-10T03:46:25;100980.56;;;14.75;86.20
74659;BME280;63186;51.204;6.536;2023-06-10T03:48:51;100988.66;;;14.80;86.00
74659;BME280;63186;51.204;6.536;2023-06-10T03:51:16;100984.09;;;14.84;85.52
74659;BME280;63186;51.204;6.536;2023-06-10T03:53:41;100983.75;;;14.85;85.53
74659;BME280;63186;51.204;6.536;2023-06-10T03:56:07;100980.97;;;14.85;85.74
74659;BME280;63186;51.204;6.536;2023-06-10T03:58:32;100971.56;;;14.78;85.97
74659;BME280;63186;51.204;6.536;2023-06-10T04:00:57;100987.06;;;14.79;86.30
74659;BME280;63186;51.204;6.536;2023-06-10T04:03:23;100988.50;;;14.85;86.40
74659;BME280;63186;51.204;6.536;2023-06-10T04:05:49;100988.44;;;15.23;85.51
74659;BME280;63186;51.204;6.536;2023-06-10T04:08:15;100978.28;;;15.48;84.32
74659;BME280;63186;51.204;6.536;2023-06-10T04:10:40;100996.47;;;15.99;82.58
74659;BME280;63186;51.204;6.536;2023-06-10T04:13:05;100998.81;;;16.55;80.35
74659;BME280;63186;51.204;6.536;2023-06-10T04:15:31;100997.25;;;17.03;77.90
74659;BME280;63186;51.204;6.536;2023-06-10T04:17:58;100991.69;;;17.55;76.07
74659;BME280;63186;51.204;6.536;2023-06-10T04:20:24;101002.22;;;18.02;74.58
74659;BME280;63186;51.204;6.536;2023-06-10T04:22:49;100999.19;;;18.23;73.96
74659;BME280;63186;51.204;6.536;2023-06-10T04:25:14;101008.59;;;18.47;73.50
74659;BME280;63186;51.204;6.536;2023-06-10T04:27:39;101001.59;;;18.53;73.31
74659;BME280;63186;51.204;6.536;2023-06-10T04:30:05;101000.50;;;18.89;72.53
74659;BME280;63186;51.204;6.536;2023-06-10T04:32:31;101003.34;;;19.24;71.40
74659;BME280;63186;51.204;6.536;2023-06-10T04:34:56;101002.53;;;19.59;70.27
74659;BME280;63186;51.204;6.536;2023-06-10T04:37:21;101006.28;;;19.86;69.35
74659;BME280;63186;51.204;6.536;2023-06-10T04:39:47;101010.09;;;20.16;68.59
74659;BME280;63186;51.204;6.536;2023-06-10T04:42:12;101011.47;;;20.45;67.33
74659;BME280;63186;51.204;6.536;2023-06-10T04:44:37;101014.78;;;20.74;66.53
74659;BME280;63186;51.204;6.536;2023-06-10T04:47:04;101010.09;;;20.58;66.77
74659;BME280;63186;51.204;6.536;2023-06-10T04:49:29;101005.69;;;20.57;67.19
74659;BME280;63186;51.204;6.536;2023-06-10T04:51:55;101004.81;;;20.76;66.64
74659;BME280;63186;51.204;6.536;2023-06-10T04:54:20;101004.97;;;21.36;65.18
74659;BME280;63186;51.204;6.536;2023-06-10T04:56:45;101008.19;;;21.99;63.70
74659;BME280;63186;51.204;6.536;2023-06-10T04:59:11;101010.84;;;22.21;62.07
74659;BME280;63186;51.204;6.536;2023-06-10T05:01:37;101014.25;;;22.41;61.63
74659;BME280;63186;51.204;6.536;2023-06-10T05:04:02;101018.75;;;22.90;60.64
74659;BME280;63186;51.204;6.536;2023-06-10T05:06:28;101017.38;;;23.21;59.68
74659;BME280;63186;51.204;6.536;2023-06-10T05:08:53;101011.88;;;23.43;58.42
74659;BME280;63186;51.204;6.536;2023-06-10T05:11:18;101003.00;;;23.34;58.73
74659;BME280;63186;51.204;6.536;2023-06-10T05:13:43;101005.78;;;23.30;58.59
74659;BME280;63186;51.204;6.536;2023-06-10T05:16:09;101006.63;;;23.38;58.13
74659;BME280;63186;51.204;6.536;2023-06-10T05:18:34;101012.22;;;23.34;58.09
74659;BME280;63186;51.204;6.536;2023-06-10T05:21:01;101013.84;;;23.35;58.39
74659;BME280;63186;51.204;6.536;2023-06-10T05:23:26;101011.63;;;23.62;57.05
74659;BME280;63186;51.204;6.536;2023-06-10T05:25:51;101016.97;;;23.99;56.05
74659;BME280;63186;51.204;6.536;2023-06-10T05:28:17;101014.66;;;24.19;55.81
74659;BME280;63186;51.204;6.536;2023-06-10T05:30:42;101014.28;;;24.39;55.17
74659;BME280;63186;51.204;6.536;2023-06-10T05:33:08;101016.66;;;24.29;55.50
74659;BME280;63186;51.204;6.536;2023-06-10T05:35:33;101012.31;;;24.39;54.88
74659;BME280;63186;51.204;6.536;2023-06-10T05:37:59;101017.56;;;24.55;53.57
74659;BME280;63186;51.204;6.536;2023-06-10T05:40:24;101024.75;;;24.38;54.35
74659;BME280;63186;51.204;6.536;2023-06-10T05:42:49;101024.41;;;24.61;54.20
74659;BME280;63186;51.204;6.536;2023-06-10T05:45:15;101020.38;;;24.98;53.14
74659;BME280;63186;51.204;6.536;2023-06-10T05:47:41;101018.78;;;24.79;53.07
74659;BME280;63186;51.204;6.536;2023-06-10T05:50:07;101021.16;;;24.55;54.26
74659;BME280;63186;51.204;6.536;2023-06-10T05:52:34;101024.00;;;24.59;54.15
74659;BME280;63186;51.204;6.536;2023-06-10T05:54:59;101019.56;;;24.76;53.74
74659;BME280;63186;51.204;6.536;2023-06-10T05:57:25;101029.63;;;25.23;52.70
74659;BME280;63186;51.204;6.536;2023-06-10T05:59:51;101026.34;;;25.53;51.16
74659;BME280;63186;51.204;6.536;2023-06-10T06:02:16;101021.88;;;25.74;50.92
74659;BME280;63186;51.204;6.536;2023-06-10T06:04:41;101030.63;;;26.01;50.34
74659;BME280;63186;51.204;6.536;2023-06-10T06:07:07;101030.63;;;26.04;49.98
74659;BME280;63186;51.204;6.536;2023-06-10T06:09:32;101027.72;;;26.18;49.58
74659;BME280;63186;51.204;6.536;2023-06-10T06:11:57;101037.75;;;26.27;49.57
74659;BME280;63186;51.204;6.536;2023-06-10T06:14:23;101024.84;;;26.25;49.36
74659;BME280;63186;51.204;6.536;2023-06-10T06:16:48;101024.97;;;26.04;49.79
74659;BME280;63186;51.204;6.536;2023-06-10T06:19:13;101025.13;;;25.76;49.97
74659;BME280;63186;51.204;6.536;2023-06-10T06:21:39;101025.94;;;25.55;50.68
74659;BME280;63186;51.204;6.536;2023-06-10T06:24:04;101029.88;;;25.86;50.48
74659;BME280;63186;51.204;6.536;2023-06-10T06:26:30;101036.19;;;26.18;49.38
74659;BME280;63186;51.204;6.536;2023-06-10T06:28:55;101036.81;;;26.51;47.89
74659;BME280;63186;51.204;6.536;2023-06-10T06:31:20;101042.97;;;26.91;46.85
74659;BME280;63186;51.204;6.536;2023-06-10T06:33:45;101040.75;;;27.16;46.74
74659;BME280;63186;51.204;6.536;2023-06-10T06:36:11;101042.91;;;27.43;45.23
74659;BME280;63186;51.204;6.536;2023-06-10T06:38:36;101037.56;;;27.90;44.56
74659;BME280;63186;51.204;6.536;2023-06-10T06:41:01;101035.88;;;27.96;44.58
74659;BME280;63186;51.204;6.536;2023-06-10T06:43:29;101035.00;;;28.29;43.77
74659;BME280;63186;51.204;6.536;2023-06-10T06:45:56;101042.91;;;28.45;43.13
74659;BME280;63186;51.204;6.536;2023-06-10T06:48:22;101047.47;;;28.62;42.90
74659;BME280;63186;51.204;6.536;2023-06-10T06:50:47;101049.88;;;28.91;42.70
74659;BME280;63186;51.204;6.536;2023-06-10T06:53:12;101051.31;;;29.26;40.31
74659;BME280;63186;51.204;6.536;2023-06-10T06:55:37;101052.94;;;29.04;41.56
74659;BME280;63186;51.204;6.536;2023-06-10T06:58:03;101054.34;;;29.15;41.68
74659;BME280;63186;51.204;6.536;2023-06-10T07:00:29;101061.31;;;29.11;40.91
74659;BME280;63186;51.204;6.536;2023-06-10T07:02:55;101059.69;;;29.10;39.75
74659;BME280;63186;51.204;6.536;2023-06-10T07:05:20;101054.56;;;29.01;41.10
74659;BME280;63186;51.204;6.536;2023-06-10T07:07:45;101064.97;;;29.08;40.72
74659;BME280;63186;51.204;6.536;2023-06-10T07:10:11;101055.28;;;29.09;41.08
74659;BME280;63186;51.204;6.536;2023-06-10T07:12:36;101060.75;;;29.19;40.28
74659;BME280;63186;51.204;6.536;2023-06-10T07:15:01;101064.59;;;29.53;39.74
74659;BME280;63186;51.204;6.536;2023-06-10T07:17:27;101066.69;;;30.12;38.77
74659;BME280;63186;51.204;6.536;2023-06-10T07:19:52;101063.13;;;30.08;38.63
74659;BME280;63186;51.204;6.536;2023-06-10T07:22:17;101062.31;;;29.87;39.07
74659;BME280;63186;51.204;6.536;2023-06-10T07:24:43;101064.19;;;30.34;38.55
74659;BME280;63186;51.204;6.536;2023-06-10T07:27:08;101069.94;;;30.30;38.00
74659;BME280;63186;51.204;6.536;2023-06-10T07:29:34;101062.81;;;30.22;37.75
74659;BME280;63186;51.204;6.536;2023-06-10T07:32:01;101066.47;;;30.59;37.39
74659;BME280;63186;51.204;6.536;2023-06-10T07:34:26;101064.09;;;30.90;37.02
74659;BME280;63186;51.204;6.536;2023-06-10T07:36:52;101061.53;;;30.79;37.45
74659;BME280;63186;51.204;6.536;2023-06-10T07:39:17;101063.31;;;30.89;36.37
74659;BME280;63186;51.204;6.536;2023-06-10T07:41:42;101056.00;;;31.21;35.86
74659;BME280;63186;51.204;6.536;2023-06-10T07:44:07;101070.16;;;31.24;35.82
74659;BME280;63186;51.204;6.536;2023-06-10T07:46:33;101065.34;;;31.67;34.85
74659;BME280;63186;51.204;6.536;2023-06-10T07:48:58;101069.94;;;31.48;36.03
74659;BME280;63186;51.204;6.536;2023-06-10T07:51:23;101069.56;;;31.91;34.76
74659;BME280;63186;51.204;6.536;2023-06-10T07:53:49;101072.72;;;32.22;34.85
74659;BME280;63186;51.204;6.536;2023-06-10T07:56:14;101071.06;;;32.37;34.51
74659;BME280;63186;51.204;6.536;2023-06-10T07:58:39;101071.75;;;32.54;34.11
74659;BME280;63186;51.204;6.536;2023-06-10T08:01:05;101069.81;;;31.97;34.76
74659;BME280;63186;51.204;6.536;2023-06-10T08:03:30;101068.41;;;31.88;34.45
74659;BME280;63186;51.204;6.536;2023-06-10T08:05:55;101071.78;;;32.12;34.87
74659;BME280;63186;51.204;6.536;2023-06-10T08:08:20;101063.16;;;32.29;34.02
74659;BME280;63186;51.204;6.536;2023-06-10T08:10:46;101065.59;;;32.56;33.47
74659;BME280;63186;51.204;6.536;2023-06-10T08:13:11;101072.31;;;32.75;33.35
74659;BME280;63186;51.204;6.536;2023-06-10T08:15:36;101063.31;;;32.89;33.08
74659;BME280;63186;51.204;6.536;2023-06-10T08:18:02;101064.56;;;32.37;33.58
74659;BME280;63186;51.204;6.536;2023-06-10T08:20:27;101070.25;;;32.62;33.21
74659;BME280;63186;51.204;6.536;2023-06-10T08:22:52;101057.84;;;32.44;32.81
74659;BME280;63186;51.204;6.536;2023-06-10T08:25:18;101066.38;;;32.56;32.94
74659;BME280;63186;51.204;6.536;2023-06-10T08:27:43;101063.88;;;32.58;32.62
74659;BME280;63186;51.204;6.536;2023-06-10T08:30:09;101060.47;;;33.36;31.69
74659;BME280;63186;51.204;6.536;2023-06-10T08:32:36;101062.75;;;32.94;31.39
74659;BME280;63186;51.204;6.536;2023-06-10T08:35:01;101064.78;;;32.43;31.36
74659;BME280;63186;51.204;6.536;2023-06-10T08:37:26;101060.69;;;32.44;31.85
74659;BME280;63186;51.204;6.536;2023-06-10T08:39:52;101061.25;;;32.64;32.00
74659;BME280;63186;51.204;6.536;2023-06-10T08:44:42;101064.22;;;32.35;32.33
74659;BME280;63186;51.204;6.536;2023-06-10T08:47:15;101061.19;;;32.26;30.34
74659;BME280;63186;51.204;6.536;2023-06-10T08:49:43;101066.38;;;32.56;31.97
74659;BME280;63186;51.204;6.536;2023-06-10T08:52:14;101060.41;;;33.14;29.16
74659;BME280;63186;51.204;6.536;2023-06-10T08:54:43;101059.19;;;32.90;30.60
74659;BME280;63186;51.204;6.536;2023-06-10T08:57:12;101064.50;;;33.26;30.13
74659;BME280;63186;51.204;6.536;2023-06-10T08:59:38;101071.34;;;33.16;31.00
74659;BME280;63186;51.204;6.536;2023-06-10T09:02:04;101066.25;;;32.85;31.49
74659;BME280;63186;51.204;6.536;2023-06-10T09:04:30;101060.69;;;32.56;31.77
74659;BME280;63186;51.204;6.536;2023-06-10T09:06:56;101060.88;;;32.24;32.32
74659;BME280;63186;51.204;6.536;2023-06-10T09:09:23;101053.59;;;32.86;31.45
74659;BME280;63186;51.204;6.536;2023-06-10T09:11:48;101062.63;;;32.59;31.57
74659;BME280;63186;51.204;6.536;2023-06-10T09:14:13;101061.94;;;32.43;31.69
74659;BME280;63186;51.204;6.536;2023-06-10T09:16:40;101063.16;;;33.05;31.17
74659;BME280;63186;51.204;6.536;2023-06-10T09:19:06;101065.69;;;33.38;30.41
74659;BME280;63186;51.204;6.536;2023-06-10T09:21:33;101067.34;;;33.83;29.86
74659;BME280;63186;51.204;6.536;2023-06-10T09:23:59;101064.34;;;33.64;30.11
74659;BME280;63186;51.204;6.536;2023-06-10T09:26:28;101056.47;;;32.86;30.49
74659;BME280;63186;51.204;6.536;2023-06-10T09:29:05;101057.94;;;32.91;30.18
74659;BME280;63186;51.204;6.536;2023-06-10T09:31:33;101057.91;;;33.16;31.34
74659;BME280;63186;51.204;6.536;2023-06-10T09:34:07;101060.56;;;32.73;29.02
74659;BME280;63186;51.204;6.536;2023-06-10T09:36:33;101061.56;;;32.40;31.38
74659;BME280;63186;51.204;6.536;2023-06-10T09:38:59;101054.59;;;32.16;31.53
74659;BME280;63186;51.204;6.536;2023-06-10T09:41:35;101044.84;;;32.01;30.32
74659;BME280;63186;51.204;6.536;2023-06-10T09:44:02;101055.22;;;31.37;32.62
74659;BME280;63186;51.204;6.536;2023-06-10T09:46:34;101050.25;;;30.92;33.14
74659;BME280;63186;51.204;6.536;2023-06-10T09:48:59;101050.94;;;30.96;32.80
74659;BME280;63186;51.204;6.536;2023-06-10T09:51:25;101059.59;;;31.25;32.87
74659;BME280;63186;51.204;6.536;2023-06-10T09:53:51;101051.91;;;31.22;31.84
74659;BME280;63186;51.204;6.536;2023-06-10T09:56:16;101039.31;;;30.90;33.43
74659;BME280;63186;51.204;6.536;2023-06-10T09:58:42;101041.09;;;30.84;33.41
74659;BME280;63186;51.204;6.536;2023-06-10T10:01:10;101036.66;;;30.83;33.98
74659;BME280;63186;51.204;6.536;2023-06-10T10:03:51;101045.38;;;30.92;32.71
74659;BME280;63186;51.204;6.536;2023-06-10T10:06:18;101038.69;;;30.83;34.05
74659;BME280;63186;51.204;6.536;2023-06-10T10:08:49;101039.13;;;30.65;33.61
74659;BME280;63186;51.204;6.536;2023-06-10T10:11:17;101031.75;;;30.84;34.18
74659;BME280;63186;51.204;6.536;2023-06-10T10:13:45;101031.81;;;31.45;32.47
74659;BME280;63186;51.204;6.536;2023-06-10T10:16:21;101040.84;;;31.11;32.70
74659;BME280;63186;51.204;6.536;2023-06-10T10:18:54;101035.63;;;31.22;32.98
74659;BME280;63186;51.204;6.536;2023-06-10T10:21:26;101026.47;;;31.47;33.39
74659;BME280;63186;51.204;6.536;2023-06-10T10:24:04;101038.06;;;31.69;31.88
74659;BME280;63186;51.204;6.536;2023-06-10T10:26:31;101031.81;;;31.45;32.40
74659;BME280;63186;51.204;6.536;2023-06-10T10:31:35;101028.91;;;31.32;32.92
74659;BME280;63186;51.204;6.536;2023-06-10T10:34:06;101027.31;;;31.31;32.90
74659;BME280;63186;51.204;6.536;2023-06-10T10:36:32;101027.66;;;31.33;32.54
74659;BME280;63186;51.204;6.536;2023-06-10T10:38:57;101021.16;;;31.33;32.42
74659;BME280;63186;51.204;6.536;2023-06-10T10:41:24;101024.88;;;31.46;32.05
74659;BME280;63186;51.204;6.536;2023-06-10T10:43:51;101006.81;;;31.95;31.96
74659;BME280;63186;51.204;6.536;2023-06-10T10:46:17;101000.91;;;32.27;31.20
74659;BME280;63186;51.204;6.536;2023-06-10T10:48:44;101000.47;;;32.16;31.15
74659;BME280;63186;51.204;6.536;2023-06-10T10:51:10;101011.28;;;32.08;29.66
74659;BME280;63186;51.204;6.536;2023-06-10T10:53:39;101009.00;;;32.03;29.84
74659;BME280;63186;51.204;6.536;2023-06-10T10:56:05;101007.16;;;31.84;30.26
74659;BME280;63186;51.204;6.536;2023-06-10T10:58:32;101001.22;;;31.78;30.56
74659;BME280;63186;51.204;6.536;2023-06-10T11:00:57;100998.34;;;31.49;29.91
74659;BME280;63186;51.204;6.536;2023-06-10T11:03:28;100998.31;;;31.37;29.47
74659;BME280;63186;51.204;6.536;2023-06-10T11:05:57;101000.66;;;31.25;30.35
74659;BME280;63186;51.204;6.536;2023-06-10T11:11:24;100983.91;;;31.44;28.40
74659;BME280;63186;51.204;6.536;2023-06-10T11:16:30;100991.97;;;31.45;28.79
74659;BME280;63186;51.204;6.536;2023-06-10T11:19:02;100992.59;;;31.24;30.00
74659;BME280;63186;51.204;6.536;2023-06-10T11:21:28;101001.09;;;31.07;29.50
74659;BME280;63186;51.204;6.536;2023-06-10T11:23:53;100979.81;;;30.83;29.70
74659;BME280;63186;51.204;6.536;2023-06-10T11:31:26;100981.34;;;29.63;30.54
74659;BME280;63186;51.204;6.536;2023-06-10T11:33:56;100977.88;;;29.55;30.38
74659;BME280;63186;51.204;6.536;2023-06-10T11:36:22;100968.91;;;29.77;30.90
74659;BME280;63186;51.204;6.536;2023-06-10T11:38:48;100965.50;;;30.02;29.90
74659;BME280;63186;51.204;6.536;2023-06-10T11:41:14;100966.94;;;30.46;29.63
74659;BME280;63186;51.204;6.536;2023-06-10T11:43:44;100966.22;;;30.42;29.53
74659;BME280;63186;51.204;6.536;2023-06-10T11:46:10;100971.00;;;30.61;29.72
74659;BME280;63186;51.204;6.536;2023-06-10T11:48:35;100957.16;;;30.63;29.72
74659;BME280;63186;51.204;6.536;2023-06-10T11:51:05;100964.81;;;30.66;29.38
74659;BME280;63186;51.204;6.536;2023-06-10T11:53:31;100972.19;;;30.80;29.93
74659;BME280;63186;51.204;6.536;2023-06-10T11:55:56;100960.19;;;30.89;29.78
74659;BME280;63186;51.204;6.536;2023-06-10T11:58:22;100956.28;;;31.28;29.17
74659;BME280;63186;51.204;6.536;2023-06-10T12:00:49;100954.94;;;31.32;28.77
74659;BME280;63186;51.204;6.536;2023-06-10T12:03:15;100955.59;;;31.24;28.63
74659;BME280;63186;51.204;6.536;2023-06-10T12:06:00;100953.72;;;31.17;29.23
74659;BME280;63186;51.204;6.536;2023-06-10T12:08:26;100956.19;;;30.70;29.08
74659;BME280;63186;51.204;6.536;2023-06-10T12:10:52;100956.00;;;30.61;29.87
74659;BME280;63186;51.204;6.536;2023-06-10T12:13:18;100951.94;;;31.23;29.71
74659;BME280;63186;51.204;6.536;2023-06-10T12:15:44;100946.97;;;31.27;28.99
74659;BME280;63186;51.204;6.536;2023-06-10T12:18:16;100952.69;;;31.11;28.85
74659;BME280;63186;51.204;6.536;2023-06-10T12:20:42;100947.94;;;30.92;30.18
74659;BME280;63186;51.204;6.536;2023-06-10T12:23:11;100942.38;;;30.72;29.98
74659;BME280;63186;51.204;6.536;2023-06-10T12:25:37;100943.56;;;30.22;30.34
74659;BME280;63186;51.204;6.536;2023-06-10T12:28:03;100938.38;;;30.00;30.51
74659;BME280;63186;51.204;6.536;2023-06-10T12:30:29;100938.00;;;29.98;31.15
74659;BME280;63186;51.204;6.536;2023-06-10T12:32:55;100941.66;;;29.79;30.68
74659;BME280;63186;51.204;6.536;2023-06-10T12:35:22;100947.63;;;29.85;31.05
74659;BME280;63186;51.204;6.536;2023-06-10T12:38:01;100954.31;;;29.94;30.79
74659;BME280;63186;51.204;6.536;2023-06-10T12:40:34;100949.06;;;29.93;30.60
74659;BME280;63186;51.204;6.536;2023-06-10T12:43:01;100949.66;;;29.84;31.06
74659;BME280;63186;51.204;6.536;2023-06-10T12:45:31;100944.03;;;29.64;31.65
74659;BME280;63186;51.204;6.536;2023-06-10T12:48:26;100951.78;;;29.40;34.43
74659;BME280;63186;51.204;6.536;2023-06-10T12:50:53;100945.94;;;29.28;32.48
74659;BME280;63186;51.204;6.536;2023-06-10T12:53:19;100959.25;;;29.11;33.88
74659;BME280;63186;51.204;6.536;2023-06-10T12:55:44;100958.56;;;28.80;34.30
74659;BME280;63186;51.204;6.536;2023-06-10T12:58:11;100952.84;;;28.36;35.68
74659;BME280;63186;51.204;6.536;2023-06-10T13:00:36;100969.19;;;27.95;37.38
74659;BME280;63186;51.204;6.536;2023-06-10T13:03:02;100970.72;;;27.72;38.63
74659;BME280;63186;51.204;6.536;2023-06-10T13:05:28;100978.84;;;27.33;39.41
74659;BME280;63186;51.204;6.536;2023-06-10T13:07:54;100964.34;;;27.27;38.64
74659;BME280;63186;51.204;6.536;2023-06-10T13:10:20;100964.34;;;27.27;37.97